createdAt,value
2022-11-24T00:01:30.331Z,28.55
2022-11-24T00:04:03.343Z,15.77
2022-11-24T00:06:32.781Z,34.53
2022-11-24T00:09:01.434Z,27.65
2022-11-24T00:11:32.414Z,18.05
2022-11-24T00:14:00.108Z,18.98
2022-11-24T00:16:35.083Z,29.70
2022-11-24T00:19:04.533Z,11.85
2022-11-24T00:21:35.040Z,19.25
2022-11-24T00:24:06.496Z,15.52
2022-11-24T00:26:40.919Z,18.15
2022-11-24T00:29:11.250Z,11.10
2022-11-24T00:31:40.847Z,14.32
2022-11-24T00:34:12.896Z,15.25
2022-11-24T00:36:43.218Z,19.13
2022-11-24T00:39:12.833Z,11.05
2022-11-24T00:41:41.677Z,11.27
2022-11-24T00:44:09.177Z,25.30
2022-11-24T00:46:37.565Z,14.88
2022-11-24T00:49:06.289Z,16.90
2022-11-24T00:51:34.079Z,13.70
2022-11-24T00:54:02.430Z,12.63
2022-11-24T00:56:30.656Z,13.05
2022-11-24T00:58:58.006Z,11.00
2022-11-24T01:01:32.625Z,11.43
2022-11-24T01:04:02.268Z,10.90
2022-11-24T01:06:33.444Z,11.40
2022-11-24T01:09:02.049Z,9.38
2022-11-24T01:11:51.572Z,8.45
2022-11-24T01:14:20.227Z,9.63
2022-11-24T01:16:47.849Z,10.30
2022-11-24T01:19:15.598Z,10.43
2022-11-24T01:21:43.496Z,10.13
2022-11-24T01:24:13.032Z,9.93
2022-11-24T01:26:40.916Z,10.02
2022-11-24T01:29:10.691Z,9.30
2022-11-24T01:31:39.292Z,10.13
2022-11-24T01:34:11.399Z,9.73
2022-11-24T01:36:39.546Z,9.93
2022-11-24T01:39:07.932Z,8.82
2022-11-24T01:41:39.380Z,9.38
2022-11-24T01:44:29.660Z,10.40
2022-11-24T01:47:30.411Z,9.70
2022-11-24T01:50:17.009Z,9.77
2022-11-24T01:52:50.932Z,9.55
2022-11-24T01:55:22.143Z,9.95
2022-11-24T01:57:59.897Z,9.63
2022-11-24T02:00:27.692Z,9.18
2022-11-24T02:02:55.653Z,10.55
2022-11-24T02:05:46.327Z,8.93
2022-11-24T02:08:29.231Z,10.63
2022-11-24T02:10:57.063Z,9.38
2022-11-24T02:13:25.280Z,9.77
2022-11-24T02:15:54.280Z,8.93
2022-11-24T02:18:21.929Z,9.02
2022-11-24T02:20:49.341Z,10.43
2022-11-24T02:23:27.795Z,9.68
2022-11-24T02:25:55.001Z,8.88
2022-11-24T02:28:24.648Z,9.32
2022-11-24T02:30:53.018Z,9.35
2022-11-24T02:33:25.329Z,8.65
2022-11-24T02:35:52.860Z,10.68
2022-11-24T02:38:32.750Z,10.40
2022-11-24T02:41:07.929Z,9.48
2022-11-24T02:43:41.179Z,10.13
2022-11-24T02:46:10.997Z,10.75
2022-11-24T02:48:40.679Z,9.85
2022-11-24T02:51:07.833Z,9.88
2022-11-24T02:53:35.528Z,9.77
2022-11-24T02:56:02.766Z,10.60
2022-11-24T02:58:30.278Z,10.45
2022-11-24T03:00:59.835Z,10.90
2022-11-24T03:03:28.054Z,12.15
2022-11-24T03:05:55.943Z,11.25
2022-11-24T03:08:26.172Z,11.57
2022-11-24T03:10:54.485Z,11.27
2022-11-24T03:13:22.092Z,12.07
2022-11-24T03:15:49.352Z,11.43
2022-11-24T03:18:18.049Z,11.82
2022-11-24T03:20:45.364Z,11.93
2022-11-24T03:23:12.930Z,12.90
2022-11-24T03:25:40.571Z,11.90
2022-11-24T03:28:08.169Z,12.32
2022-11-24T03:30:35.388Z,11.35
2022-11-24T03:33:05.087Z,11.80
2022-11-24T03:35:32.257Z,11.98
2022-11-24T03:37:59.768Z,12.60
2022-11-24T03:40:27.248Z,12.70
2022-11-24T03:42:56.029Z,11.63
2022-11-24T03:45:44.801Z,12.15
2022-11-24T03:48:10.883Z,12.15
2022-11-24T03:50:38.159Z,19.13
2022-11-24T03:53:06.995Z,12.73
2022-11-24T03:55:34.278Z,12.75
2022-11-24T03:58:02.206Z,12.70
2022-11-24T04:00:29.651Z,13.25
2022-11-24T04:02:58.439Z,14.15
2022-11-24T04:05:25.647Z,12.85
2022-11-24T04:07:57.887Z,13.10
2022-11-24T04:10:25.420Z,13.20
2022-11-24T04:12:53.028Z,12.63
2022-11-24T04:15:23.536Z,12.75
2022-11-24T04:17:51.194Z,13.32
2022-11-24T04:20:19.068Z,12.52
2022-11-24T04:22:47.580Z,12.65
2022-11-24T04:25:19.781Z,13.95
2022-11-24T04:27:52.328Z,13.18
2022-11-24T04:30:20.491Z,13.85
2022-11-24T04:32:48.237Z,13.25
2022-11-24T04:35:15.717Z,12.50
2022-11-24T04:37:43.385Z,13.80
2022-11-24T04:40:11.825Z,13.30
2022-11-24T04:42:40.153Z,12.23
2022-11-24T04:45:08.160Z,12.48
2022-11-24T04:47:35.677Z,14.13
2022-11-24T04:50:04.976Z,13.23
2022-11-24T04:52:32.537Z,13.38
2022-11-24T04:54:59.707Z,13.50
2022-11-24T04:57:27.763Z,14.48
2022-11-24T04:59:55.444Z,13.85
2022-11-24T05:02:24.473Z,14.05
2022-11-24T05:04:52.240Z,13.18
2022-11-24T05:07:19.935Z,12.43
2022-11-24T05:10:08.016Z,15.15
2022-11-24T05:12:35.746Z,13.90
2022-11-24T05:15:05.033Z,13.80
2022-11-24T05:17:35.443Z,12.70
2022-11-24T05:20:08.111Z,13.15
2022-11-24T05:22:36.001Z,14.43
2022-11-24T05:25:03.916Z,14.73
2022-11-24T05:27:31.446Z,14.93
2022-11-24T05:30:00.488Z,12.95
2022-11-24T05:32:32.631Z,13.10
2022-11-24T05:35:02.237Z,12.65
2022-11-24T05:37:29.912Z,13.57
2022-11-24T05:39:58.052Z,13.95
2022-11-24T05:42:46.268Z,13.48
2022-11-24T05:45:20.175Z,13.60
2022-11-24T05:47:51.564Z,13.00
2022-11-24T05:50:20.911Z,14.57
2022-11-24T05:52:49.380Z,13.85
2022-11-24T05:55:19.611Z,13.23
2022-11-24T05:57:47.373Z,14.05
2022-11-24T06:00:18.142Z,11.77
2022-11-24T06:02:46.008Z,12.18
2022-11-24T06:05:15.888Z,12.15
2022-11-24T06:07:44.902Z,12.23
2022-11-24T06:10:16.861Z,12.40
2022-11-24T06:12:46.126Z,12.90
2022-11-24T06:15:14.217Z,12.90
2022-11-24T06:17:42.416Z,12.10
2022-11-24T06:20:11.495Z,13.75
2022-11-24T06:22:39.335Z,14.02
2022-11-24T06:25:06.759Z,13.88
2022-11-24T06:27:34.391Z,14.00
2022-11-24T06:30:01.678Z,11.73
2022-11-24T06:32:31.945Z,18.67
2022-11-24T06:35:00.177Z,14.25
2022-11-24T06:37:27.961Z,10.90
2022-11-24T06:39:55.256Z,11.25
2022-11-24T06:42:24.025Z,11.93
2022-11-24T06:44:51.330Z,14.38
2022-11-24T06:47:20.949Z,13.32
2022-11-24T06:49:50.721Z,13.82
2022-11-24T06:52:20.486Z,15.38
2022-11-24T06:54:49.920Z,11.93
2022-11-24T06:57:18.562Z,12.52
2022-11-24T06:59:45.907Z,14.40
2022-11-24T07:02:14.665Z,13.63
2022-11-24T07:04:43.758Z,12.02
2022-11-24T07:07:12.928Z,13.63
2022-11-24T07:09:45.002Z,12.73
2022-11-24T07:12:12.563Z,16.63
2022-11-24T07:14:40.018Z,13.85
2022-11-24T07:17:09.197Z,12.23
2022-11-24T07:19:36.416Z,13.20
2022-11-24T07:22:05.016Z,13.85
2022-11-24T07:24:34.589Z,13.40
2022-11-24T07:27:02.345Z,15.23
2022-11-24T07:29:29.765Z,16.50
2022-11-24T07:32:03.743Z,14.27
2022-11-24T07:34:33.113Z,14.80
2022-11-24T07:37:03.707Z,12.63
2022-11-24T07:39:31.404Z,13.02
2022-11-24T07:42:00.487Z,12.10
2022-11-24T07:44:31.549Z,12.02
2022-11-24T07:47:00.727Z,11.93
2022-11-24T07:49:29.526Z,11.77
2022-11-24T07:51:58.947Z,15.02
2022-11-24T07:54:32.118Z,16.08
2022-11-24T07:57:04.563Z,16.42
2022-11-24T07:59:31.908Z,15.38
2022-11-24T08:02:03.996Z,13.05
2022-11-24T08:04:34.422Z,12.60
2022-11-24T08:07:06.780Z,10.95
2022-11-24T08:09:35.847Z,9.57
2022-11-24T08:12:06.090Z,10.10
2022-11-24T08:14:33.844Z,10.18
2022-11-24T08:17:01.817Z,11.55
2022-11-24T08:19:32.365Z,10.35
2022-11-24T08:22:00.139Z,10.70
2022-11-24T08:24:28.037Z,8.70
2022-11-24T08:26:55.714Z,10.85
2022-11-24T08:29:23.121Z,9.73
2022-11-24T08:31:50.922Z,10.93
2022-11-24T08:34:18.934Z,10.68
2022-11-24T08:36:47.690Z,8.32
2022-11-24T08:39:15.047Z,9.65
2022-11-24T08:41:42.907Z,9.70
2022-11-24T08:44:10.893Z,10.10
2022-11-24T08:46:38.584Z,11.15
2022-11-24T08:49:07.374Z,11.80
2022-11-24T08:51:35.085Z,11.23
2022-11-24T08:54:02.851Z,9.85
2022-11-24T08:56:32.530Z,11.02
2022-11-24T08:59:00.780Z,9.93
2022-11-24T09:01:29.223Z,9.80
2022-11-24T09:03:58.418Z,11.52
2022-11-24T09:06:31.047Z,9.48
2022-11-24T09:08:59.938Z,8.90
2022-11-24T09:11:27.818Z,9.93
2022-11-24T09:13:55.755Z,8.63
2022-11-24T09:16:26.590Z,10.43
2022-11-24T09:19:00.601Z,9.45
2022-11-24T09:21:30.200Z,10.20
2022-11-24T09:24:16.716Z,9.25
2022-11-24T09:26:47.626Z,9.75
2022-11-24T09:29:15.574Z,9.10
2022-11-24T09:31:43.234Z,11.95
2022-11-24T09:34:13.723Z,13.30
2022-11-24T09:36:42.141Z,9.18
2022-11-24T09:39:10.399Z,7.78
2022-11-24T09:42:03.402Z,11.20
2022-11-24T09:44:54.971Z,11.27
2022-11-24T09:47:44.160Z,12.57
2022-11-24T09:50:22.091Z,10.98
2022-11-24T09:53:11.074Z,13.38
2022-11-24T09:55:48.043Z,7.20
2022-11-24T09:58:31.719Z,10.48
2022-11-24T10:01:38.241Z,10.38
2022-11-24T10:04:16.639Z,10.20
2022-11-24T10:06:49.974Z,8.55
2022-11-24T10:09:45.423Z,9.40
2022-11-24T10:12:37.387Z,8.57
2022-11-24T10:15:27.282Z,9.48
2022-11-24T10:18:08.367Z,9.30
2022-11-24T10:20:48.756Z,9.45
2022-11-24T10:23:53.246Z,8.80
2022-11-24T10:26:43.746Z,9.65
2022-11-24T10:29:24.879Z,9.70
2022-11-24T10:31:55.537Z,10.15
2022-11-24T10:34:37.498Z,9.13
2022-11-24T10:37:05.221Z,7.28
2022-11-24T10:39:39.313Z,8.18
2022-11-24T10:42:23.889Z,11.80
2022-11-24T10:45:12.234Z,9.25
2022-11-24T10:47:42.472Z,10.30
2022-11-24T10:50:33.404Z,8.45
2022-11-24T10:53:13.255Z,9.07
2022-11-24T10:55:56.110Z,8.98
2022-11-24T10:58:37.983Z,9.88
2022-11-24T11:01:16.018Z,8.98
2022-11-24T11:03:47.439Z,7.82
2022-11-24T11:06:36.385Z,7.47
2022-11-24T11:09:07.188Z,8.68
2022-11-24T11:11:36.066Z,9.38
2022-11-24T11:14:08.359Z,8.95
2022-11-24T11:16:38.607Z,9.07
2022-11-24T11:20:00.352Z,11.75
2022-11-24T11:22:32.338Z,11.75
2022-11-24T11:25:06.147Z,9.25
2022-11-24T11:27:33.511Z,10.10
2022-11-24T11:36:11.399Z,10.45
2022-11-24T11:38:40.595Z,11.30
2022-11-24T11:41:21.993Z,9.30
2022-11-24T11:43:57.299Z,10.40
2022-11-24T11:46:29.690Z,8.60
2022-11-24T11:48:57.131Z,10.40
2022-11-24T11:52:00.137Z,9.52
2022-11-24T11:54:54.722Z,10.23
2022-11-24T11:57:43.538Z,8.48
2022-11-24T12:00:13.468Z,9.50
2022-11-24T12:03:10.132Z,9.93
2022-11-24T12:05:50.749Z,9.13
2022-11-24T12:09:17.994Z,7.63
2022-11-24T12:11:43.475Z,7.35
2022-11-24T12:14:17.627Z,9.15
2022-11-24T12:17:13.991Z,10.13
2022-11-24T12:19:57.192Z,9.98
2022-11-24T12:22:40.785Z,8.55
2022-11-24T12:25:20.219Z,7.70
2022-11-24T12:28:00.457Z,8.23
2022-11-24T12:30:41.055Z,9.60
2022-11-24T12:33:29.748Z,7.82
2022-11-24T12:36:12.344Z,8.05
2022-11-24T12:39:14.756Z,7.00
2022-11-24T12:41:51.231Z,7.57
2022-11-24T12:44:44.884Z,8.35
2022-11-24T12:47:21.948Z,8.40
2022-11-24T12:50:07.729Z,7.28
2022-11-24T12:52:50.203Z,7.45
2022-11-24T12:55:23.267Z,8.20
2022-11-24T12:57:55.945Z,6.57
2022-11-24T13:00:35.360Z,6.63
2022-11-24T13:03:41.821Z,7.35
2022-11-24T13:08:57.221Z,8.70
2022-11-24T13:11:34.945Z,8.93
2022-11-24T13:14:17.915Z,10.90
2022-11-24T13:19:42.521Z,10.95
2022-11-24T13:22:15.493Z,11.55
2022-11-24T13:24:45.038Z,10.85
2022-11-24T13:27:15.498Z,11.27
2022-11-24T13:29:43.858Z,11.80
2022-11-24T13:32:11.918Z,11.68
2022-11-24T13:34:39.599Z,11.38
2022-11-24T13:37:31.543Z,12.63
2022-11-24T13:40:14.256Z,10.60
2022-11-24T13:43:02.137Z,10.23
2022-11-24T13:45:38.899Z,9.23
2022-11-24T13:48:22.305Z,9.98
2022-11-24T13:50:51.180Z,9.65
2022-11-24T13:53:36.126Z,8.75
2022-11-24T13:58:44.523Z,10.30
2022-11-24T14:01:28.529Z,10.40
2022-11-24T14:06:53.403Z,9.75
2022-11-24T14:09:38.350Z,10.85
2022-11-24T14:12:16.926Z,10.68
2022-11-24T14:14:46.793Z,12.57
2022-11-24T14:17:17.329Z,10.88
2022-11-24T14:19:48.850Z,12.43
2022-11-24T14:22:22.695Z,11.27
2022-11-24T14:24:58.736Z,6.93
2022-11-24T14:27:35.069Z,6.97
2022-11-24T14:32:33.282Z,6.15
2022-11-24T14:35:02.055Z,5.57
2022-11-24T14:37:29.758Z,6.70
2022-11-24T14:39:57.049Z,5.50
2022-11-24T14:42:27.516Z,6.75
2022-11-24T14:45:04.006Z,7.60
2022-11-24T14:47:36.406Z,9.55
2022-11-24T14:50:23.510Z,11.82
2022-11-24T14:52:58.997Z,8.98
2022-11-24T14:55:29.776Z,7.88
2022-11-24T14:58:00.545Z,10.40
2022-11-24T15:00:33.458Z,12.30
2022-11-24T15:03:02.268Z,13.02
2022-11-24T15:05:53.169Z,12.38
2022-11-24T15:08:21.752Z,9.85
2022-11-24T15:10:55.457Z,9.45
2022-11-24T15:13:25.125Z,8.88
2022-11-24T15:16:02.040Z,8.45
2022-11-24T15:18:37.436Z,9.85
2022-11-24T15:21:05.265Z,13.27
2022-11-24T15:23:34.164Z,11.23
2022-11-24T15:26:01.489Z,11.25
2022-11-24T15:28:31.198Z,10.13
2022-11-24T15:31:12.845Z,14.00
2022-11-24T15:33:41.651Z,10.68
2022-11-24T15:36:14.126Z,19.92
2022-11-24T15:38:41.664Z,14.40
2022-11-24T15:41:33.221Z,18.00
2022-11-24T15:44:01.018Z,17.40
2022-11-24T15:46:31.104Z,18.17
2022-11-24T15:49:02.832Z,14.27
2022-11-24T15:51:31.475Z,12.95
2022-11-24T15:54:01.608Z,17.25
2022-11-24T15:56:36.737Z,15.15
2022-11-24T15:59:05.712Z,16.25
2022-11-24T16:01:34.417Z,18.15
2022-11-24T16:04:02.838Z,17.67
2022-11-24T16:06:30.133Z,17.05
2022-11-24T16:08:58.294Z,17.33
2022-11-24T16:11:25.909Z,25.25
2022-11-24T16:13:54.473Z,24.10
2022-11-24T16:16:26.335Z,19.58
2022-11-24T16:18:53.925Z,23.23
2022-11-24T16:21:22.030Z,31.85
2022-11-24T16:23:49.731Z,23.38
2022-11-24T16:26:17.269Z,22.42
2022-11-24T16:28:45.846Z,19.88
2022-11-24T16:31:16.300Z,23.98
2022-11-24T16:33:45.085Z,19.60
2022-11-24T16:36:16.343Z,20.15
2022-11-24T16:38:44.624Z,14.70
2022-11-24T16:41:13.172Z,17.52
2022-11-24T16:43:40.576Z,16.05
2022-11-24T16:46:16.181Z,12.80
2022-11-24T16:48:45.155Z,12.85
2022-11-24T16:51:14.038Z,13.45
2022-11-24T16:53:41.649Z,13.80
2022-11-24T16:56:09.639Z,12.00
2022-11-24T16:58:38.510Z,12.15
2022-11-24T17:01:07.390Z,10.98
2022-11-24T17:03:38.354Z,12.02
2022-11-24T17:06:10.406Z,15.68
2022-11-24T17:08:39.645Z,11.23
2022-11-24T17:11:08.193Z,17.25
2022-11-24T17:13:35.556Z,18.55
2022-11-24T17:16:05.662Z,14.38
2022-11-24T17:18:33.985Z,14.55
2022-11-24T17:21:07.696Z,9.95
2022-11-24T17:23:36.664Z,10.57
2022-11-24T17:26:07.177Z,14.32
2022-11-24T17:28:35.453Z,12.10
2022-11-24T17:31:15.730Z,16.50
2022-11-24T17:33:43.158Z,17.08
2022-11-24T17:36:10.847Z,15.52
2022-11-24T17:38:38.188Z,13.45
2022-11-24T17:41:05.505Z,14.25
2022-11-24T17:43:33.640Z,10.95
2022-11-24T17:46:02.725Z,11.15
2022-11-24T17:48:33.472Z,12.15
2022-11-24T17:51:13.658Z,15.20
2022-11-24T17:53:43.058Z,33.05
2022-11-24T17:56:15.932Z,14.32
2022-11-24T17:58:43.669Z,13.85
2022-11-24T18:01:12.938Z,12.88
2022-11-24T18:03:42.659Z,11.73
2022-11-24T18:06:18.504Z,11.77
2022-11-24T18:08:49.175Z,14.00
2022-11-24T18:11:24.646Z,14.07
2022-11-24T18:14:02.182Z,15.02
2022-11-24T18:16:32.299Z,16.35
2022-11-24T18:19:11.057Z,16.02
2022-11-24T18:21:50.355Z,15.30
2022-11-24T18:24:24.205Z,13.43
2022-11-24T18:26:55.951Z,14.95
2022-11-24T18:29:25.141Z,16.33
2022-11-24T18:31:53.594Z,17.08
2022-11-24T18:34:24.861Z,14.80
2022-11-24T18:36:52.764Z,16.15
2022-11-24T18:39:20.363Z,13.35
2022-11-24T18:41:47.981Z,14.32
2022-11-24T18:44:16.215Z,16.90
2022-11-24T18:46:43.452Z,17.10
2022-11-24T18:49:11.175Z,18.42
2022-11-24T18:51:38.421Z,17.13
2022-11-24T18:54:27.446Z,15.80
2022-11-24T18:56:57.760Z,17.52
2022-11-24T19:01:58.120Z,15.68
2022-11-24T19:04:26.373Z,14.45
2022-11-24T19:06:53.530Z,16.73
2022-11-24T19:09:22.861Z,17.75
2022-11-24T19:11:50.075Z,14.93
2022-11-24T19:14:19.208Z,13.15
2022-11-24T19:16:48.400Z,12.95
2022-11-24T19:19:17.308Z,15.25
2022-11-24T19:21:45.208Z,11.98
2022-11-24T19:24:14.878Z,13.10
2022-11-24T19:26:42.331Z,12.95
2022-11-24T19:29:10.292Z,10.20
2022-11-24T19:31:40.969Z,11.77
2022-11-24T19:34:08.571Z,14.50
2022-11-24T19:36:37.369Z,11.82
2022-11-24T19:39:05.336Z,12.30
2022-11-24T19:41:35.359Z,13.73
2022-11-24T19:44:03.061Z,11.55
2022-11-24T19:46:30.670Z,11.32
2022-11-24T19:49:03.351Z,10.35
2022-11-24T19:51:32.706Z,10.13
2022-11-24T19:54:02.941Z,10.27
2022-11-24T19:56:34.221Z,9.45
2022-11-24T19:59:04.194Z,13.25
2022-11-24T20:01:39.844Z,12.20
2022-11-24T20:04:12.056Z,10.55
2022-11-24T20:06:44.594Z,15.32
2022-11-24T20:09:15.658Z,17.50
2022-11-24T20:11:43.498Z,22.27
2022-11-24T20:14:13.404Z,14.23
2022-11-24T20:16:41.052Z,10.15
2022-11-24T20:19:14.604Z,10.18
2022-11-24T20:21:46.085Z,10.98
2022-11-24T20:24:16.607Z,11.35
2022-11-24T20:26:50.160Z,11.25
2022-11-24T20:29:18.280Z,10.97
2022-11-24T20:31:49.930Z,10.13
2022-11-24T20:34:18.318Z,8.57
2022-11-24T20:36:46.688Z,7.68
2022-11-24T20:39:17.959Z,8.68
2022-11-24T20:41:45.411Z,9.75
2022-11-24T20:44:16.873Z,13.77
2022-11-24T20:46:46.968Z,10.35
2022-11-24T20:49:17.616Z,10.27
2022-11-24T20:51:47.200Z,12.37
2022-11-24T20:54:17.070Z,11.18
2022-11-24T20:56:46.788Z,12.85
2022-11-24T20:59:18.699Z,11.90
2022-11-24T21:01:46.944Z,13.68
2022-11-24T21:04:18.484Z,14.98
2022-11-24T21:06:46.381Z,15.80
2022-11-24T21:09:14.225Z,15.38
2022-11-24T21:11:41.563Z,14.68
2022-11-24T21:14:09.690Z,23.92
2022-11-24T21:16:39.473Z,20.67
2022-11-24T21:19:11.949Z,20.52
2022-11-24T21:21:42.812Z,26.40
2022-11-24T21:24:13.469Z,23.48
2022-11-24T21:26:42.286Z,22.23
2022-11-24T21:29:12.601Z,17.58
2022-11-24T21:31:40.411Z,21.05
2022-11-24T21:34:08.898Z,23.88
2022-11-24T21:36:40.124Z,26.55
2022-11-24T21:39:07.709Z,26.83
2022-11-24T21:41:35.715Z,25.45
2022-11-24T21:44:03.420Z,25.52
2022-11-24T21:46:40.559Z,21.10
2022-11-24T21:49:13.321Z,21.67
2022-11-24T21:51:41.319Z,22.90
2022-11-24T21:54:09.209Z,23.90
2022-11-24T21:56:36.472Z,24.05
2022-11-24T21:59:04.097Z,24.08
2022-11-24T22:01:31.610Z,30.73
2022-11-24T22:04:00.662Z,30.70
2022-11-24T22:06:28.064Z,23.60
2022-11-24T22:08:55.724Z,18.58
2022-11-24T22:11:25.506Z,17.40
2022-11-24T22:13:53.826Z,24.45
2022-11-24T22:16:23.142Z,22.67
2022-11-24T22:18:51.102Z,20.33
2022-11-24T22:21:30.710Z,16.67
2022-11-24T22:23:58.359Z,18.17
2022-11-24T22:26:27.135Z,16.25
2022-11-24T22:28:55.896Z,15.63
2022-11-24T22:31:25.850Z,16.48
2022-11-24T22:33:54.486Z,17.38
2022-11-24T22:36:24.452Z,18.42
2022-11-24T22:38:58.491Z,18.35
2022-11-24T22:41:26.206Z,18.53
2022-11-24T22:43:54.155Z,15.02
2022-11-24T22:46:28.664Z,16.38
2022-11-24T22:48:59.229Z,15.80
2022-11-24T22:51:29.354Z,14.38
2022-11-24T22:54:02.459Z,13.68
2022-11-24T22:56:32.903Z,12.98
2022-11-24T22:59:05.218Z,13.40
2022-11-24T23:01:36.961Z,14.95
2022-11-24T23:04:05.034Z,26.35
2022-11-24T23:06:34.374Z,35.70
2022-11-24T23:09:03.904Z,35.45
2022-11-24T23:11:38.024Z,28.20
2022-11-24T23:14:16.310Z,28.00
2022-11-24T23:16:50.107Z,20.75
2022-11-24T23:19:18.417Z,21.52
2022-11-24T23:21:46.087Z,26.55
2022-11-24T23:24:15.137Z,18.42
2022-11-24T23:26:42.493Z,28.52
2022-11-24T23:29:12.654Z,33.90
2022-11-24T23:31:40.407Z,27.63
2022-11-24T23:34:08.676Z,23.20
2022-11-24T23:36:35.938Z,20.08
2022-11-24T23:39:10.164Z,23.55
2022-11-24T23:41:37.786Z,23.00
2022-11-24T23:44:07.950Z,26.25
2022-11-24T23:46:35.167Z,22.67
2022-11-24T23:49:02.778Z,22.40
2022-11-24T23:51:31.980Z,22.20
2022-11-24T23:54:01.916Z,18.08
2022-11-24T23:56:33.080Z,13.27
2022-11-24T23:59:03.362Z,13.20
